createdAt,value
2018-01-15T00:00:37.814Z,10.47
2018-01-15T00:03:05.421Z,11.05
2018-01-15T00:05:33.048Z,11.12
2018-01-15T00:08:00.613Z,11.40
2018-01-15T00:10:28.206Z,9.68
2018-01-15T00:12:56.203Z,10.85
2018-01-15T00:15:23.775Z,11.52
2018-01-15T00:17:51.382Z,10.70
2018-01-15T00:20:18.969Z,11.65
2018-01-15T00:22:46.554Z,11.38
2018-01-15T00:25:14.141Z,9.82
2018-01-15T00:27:41.739Z,10.05
2018-01-15T00:30:09.353Z,10.48
2018-01-15T00:32:37.226Z,9.27
2018-01-15T00:35:04.793Z,11.20
2018-01-15T00:37:32.442Z,10.70
2018-01-15T00:40:00.076Z,10.02
2018-01-15T00:42:27.897Z,12.80
2018-01-15T00:44:55.866Z,11.18
2018-01-15T00:47:23.502Z,11.12
2018-01-15T00:49:51.122Z,10.27
2018-01-15T00:52:18.760Z,10.20
2018-01-15T00:54:46.328Z,9.65
2018-01-15T00:57:13.943Z,11.25
2018-01-15T00:59:41.526Z,10.50
2018-01-15T01:02:09.104Z,10.65
2018-01-15T01:04:36.717Z,10.60
2018-01-15T01:07:04.361Z,8.82
2018-01-15T01:09:31.936Z,9.65
2018-01-15T01:11:59.533Z,9.57
2018-01-15T01:14:27.179Z,10.57
2018-01-15T01:16:54.777Z,9.30
2018-01-15T01:19:22.339Z,10.45
2018-01-15T01:21:49.896Z,9.57
2018-01-15T01:24:17.531Z,9.68
2018-01-15T01:26:45.114Z,9.70
2018-01-15T01:29:12.719Z,8.80
2018-01-15T01:31:40.322Z,10.70
2018-01-15T01:34:07.940Z,11.05
2018-01-15T01:36:35.510Z,9.80
2018-01-15T01:39:03.109Z,9.80
2018-01-15T01:41:30.678Z,11.48
2018-01-15T01:43:58.274Z,11.32
2018-01-15T01:46:25.870Z,12.18
2018-01-15T01:48:59.424Z,9.70
2018-01-15T01:51:27.000Z,10.63
2018-01-15T01:53:54.819Z,9.57
2018-01-15T01:56:22.394Z,10.32
2018-01-15T01:58:50.138Z,10.75
2018-01-15T02:01:17.726Z,11.15
2018-01-15T02:03:45.324Z,8.48
2018-01-15T02:06:12.899Z,9.10
2018-01-15T02:08:40.523Z,9.88
2018-01-15T02:11:08.536Z,9.98
2018-01-15T02:13:36.154Z,9.60
2018-01-15T02:16:03.770Z,11.02
2018-01-15T02:18:31.390Z,11.95
2018-01-15T02:20:58.961Z,10.02
2018-01-15T02:23:26.551Z,11.32
2018-01-15T02:25:54.127Z,10.85
2018-01-15T02:28:21.738Z,8.93
2018-01-15T02:30:49.318Z,9.70
2018-01-15T02:33:16.923Z,10.30
2018-01-15T02:35:44.923Z,9.70
2018-01-15T02:38:12.504Z,10.13
2018-01-15T02:40:40.099Z,10.00
2018-01-15T02:43:07.728Z,10.85
2018-01-15T02:45:35.488Z,10.13
2018-01-15T02:48:03.083Z,9.95
2018-01-15T02:50:30.762Z,11.10
2018-01-15T02:52:58.365Z,10.80
2018-01-15T02:55:25.974Z,10.50
2018-01-15T02:57:53.555Z,12.07
2018-01-15T03:00:21.185Z,11.82
2018-01-15T03:02:48.752Z,12.18
2018-01-15T03:05:16.360Z,11.07
2018-01-15T03:07:43.995Z,12.45
2018-01-15T03:10:11.665Z,10.07
2018-01-15T03:12:39.234Z,8.52
2018-01-15T03:15:06.846Z,10.48
2018-01-15T03:17:34.438Z,11.12
2018-01-15T03:20:02.029Z,10.85
2018-01-15T03:22:29.603Z,11.15
2018-01-15T03:24:57.206Z,10.95
2018-01-15T03:27:24.799Z,8.98
2018-01-15T03:29:52.418Z,8.82
2018-01-15T03:32:20.016Z,10.05
2018-01-15T03:34:47.819Z,9.68
2018-01-15T03:37:15.472Z,10.85
2018-01-15T03:39:43.090Z,9.80
2018-01-15T03:42:10.689Z,10.38
2018-01-15T03:44:38.311Z,12.25
2018-01-15T03:47:05.923Z,11.80
2018-01-15T03:49:33.549Z,10.90
2018-01-15T03:52:01.185Z,9.77
2018-01-15T03:54:28.786Z,9.50
2018-01-15T03:56:56.387Z,10.63
2018-01-15T03:59:23.979Z,10.95
2018-01-15T04:01:51.612Z,11.52
2018-01-15T04:04:19.207Z,10.60
2018-01-15T04:06:47.040Z,9.85
2018-01-15T04:09:14.634Z,10.27
2018-01-15T04:11:42.266Z,9.82
2018-01-15T04:14:09.832Z,9.68
2018-01-15T04:16:37.454Z,9.30
2018-01-15T04:19:05.022Z,9.68
2018-01-15T04:21:32.632Z,9.60
2018-01-15T04:24:00.247Z,10.73
2018-01-15T04:26:27.851Z,9.23
2018-01-15T04:28:55.474Z,9.25
2018-01-15T04:31:23.126Z,9.10
2018-01-15T04:33:50.682Z,9.55
2018-01-15T04:36:18.278Z,10.10
2018-01-15T04:38:46.142Z,10.60
2018-01-15T04:41:13.774Z,10.52
2018-01-15T04:43:41.396Z,8.63
2018-01-15T04:46:09.003Z,9.23
2018-01-15T04:48:36.614Z,11.15
2018-01-15T04:51:04.248Z,10.48
2018-01-15T04:53:31.861Z,9.93
2018-01-15T04:55:59.697Z,10.30
2018-01-15T04:58:27.318Z,10.40
2018-01-15T05:00:54.940Z,10.48
2018-01-15T05:03:22.539Z,9.73
2018-01-15T05:05:50.152Z,10.20
2018-01-15T05:08:17.752Z,10.40
2018-01-15T05:10:45.501Z,8.73
2018-01-15T05:13:13.127Z,12.30
2018-01-15T05:15:40.742Z,11.95
2018-01-15T05:18:08.455Z,11.80
2018-01-15T05:20:36.033Z,11.50
2018-01-15T05:23:03.656Z,10.02
2018-01-15T05:25:31.275Z,9.88
2018-01-15T05:27:58.900Z,9.88
2018-01-15T05:30:26.501Z,10.80
2018-01-15T05:32:54.145Z,11.52
2018-01-15T05:35:21.744Z,12.23
2018-01-15T05:37:49.716Z,11.00
2018-01-15T05:40:17.317Z,10.15
2018-01-15T05:42:44.920Z,11.68
2018-01-15T05:45:12.578Z,10.98
2018-01-15T05:47:40.201Z,11.12
2018-01-15T05:50:07.837Z,11.65
2018-01-15T05:52:35.463Z,11.12
2018-01-15T05:55:03.058Z,9.68
2018-01-15T05:57:30.695Z,10.35
2018-01-15T05:59:58.284Z,8.82
2018-01-15T06:02:26.459Z,10.20
2018-01-15T06:04:54.046Z,10.50
2018-01-15T06:07:21.684Z,10.32
2018-01-15T06:09:49.554Z,9.00
2018-01-15T06:12:17.476Z,8.77
2018-01-15T06:14:45.491Z,8.52
2018-01-15T06:17:13.103Z,11.15
2018-01-15T06:19:40.719Z,12.85
2018-01-15T06:22:08.312Z,11.35
2018-01-15T06:24:35.929Z,11.45
2018-01-15T06:27:03.528Z,8.38
2018-01-15T06:29:31.132Z,11.15
2018-01-15T06:31:58.983Z,11.23
2018-01-15T06:34:28.563Z,11.02
2018-01-15T06:36:56.686Z,12.35
2018-01-15T06:39:25.300Z,11.25
2018-01-15T06:41:52.952Z,11.63
2018-01-15T06:44:20.561Z,11.93
2018-01-15T06:46:48.132Z,9.02
2018-01-15T06:49:16.959Z,9.95
2018-01-15T06:51:44.536Z,10.02
2018-01-15T06:54:12.134Z,11.80
2018-01-15T06:56:39.716Z,10.82
2018-01-15T06:59:07.360Z,12.48
2018-01-15T07:01:34.939Z,10.77
2018-01-15T07:04:02.528Z,7.90
2018-01-15T07:06:30.119Z,8.60
2018-01-15T07:08:57.720Z,10.23
2018-01-15T07:11:25.291Z,8.95
2018-01-15T07:13:52.874Z,9.77
2018-01-15T07:16:20.447Z,12.63
2018-01-15T07:18:48.084Z,12.43
2018-01-15T07:21:15.695Z,12.15
2018-01-15T07:23:43.343Z,9.55
2018-01-15T07:26:10.964Z,8.80
2018-01-15T07:28:38.970Z,10.32
2018-01-15T07:31:06.536Z,12.02
2018-01-15T07:33:34.134Z,9.80
2018-01-15T07:36:01.710Z,9.73
2018-01-15T07:38:30.143Z,8.38
2018-01-15T07:40:57.744Z,10.23
2018-01-15T07:43:25.343Z,9.13
2018-01-15T07:45:53.023Z,11.00
2018-01-15T07:48:20.642Z,9.02
2018-01-15T07:50:48.252Z,11.12
2018-01-15T07:53:16.722Z,11.38
2018-01-15T07:55:44.362Z,11.88
2018-01-15T07:58:11.960Z,12.18
2018-01-15T08:00:39.702Z,13.15
2018-01-15T08:03:13.194Z,11.05
2018-01-15T08:05:40.778Z,11.15
2018-01-15T08:08:08.372Z,13.52
2018-01-15T08:10:36.034Z,12.35
2018-01-15T08:13:03.611Z,12.25
2018-01-15T08:15:31.269Z,9.30
2018-01-15T08:18:10.219Z,11.10
2018-01-15T08:20:38.011Z,12.00
2018-01-15T08:23:11.959Z,12.10
2018-01-15T08:25:40.328Z,13.37
2018-01-15T08:28:09.769Z,9.47
2018-01-15T08:30:37.463Z,12.27
2018-01-15T08:33:05.210Z,11.13
2018-01-15T08:35:32.864Z,10.83
2018-01-15T08:38:00.468Z,12.20
2018-01-15T08:40:28.175Z,12.10
2018-01-15T08:42:58.886Z,12.57
2018-01-15T08:45:26.478Z,9.87
2018-01-15T08:47:54.080Z,10.60
2018-01-15T08:50:21.683Z,10.17
2018-01-15T08:52:49.855Z,11.27
2018-01-15T08:55:17.468Z,13.00
2018-01-15T08:57:45.444Z,12.60
2018-01-15T09:00:13.024Z,10.73
2018-01-15T09:02:40.614Z,12.07
2018-01-15T09:05:08.215Z,10.60
2018-01-15T09:07:36.330Z,11.83
2018-01-15T09:10:03.910Z,10.73
2018-01-15T09:12:31.554Z,11.73
2018-01-15T09:14:59.210Z,9.97
2018-01-15T09:17:26.800Z,10.50
2018-01-15T09:19:54.396Z,11.40
2018-01-15T09:22:22.045Z,12.63
2018-01-15T09:24:49.615Z,12.90
2018-01-15T09:27:17.227Z,13.53
2018-01-15T09:29:44.811Z,10.73
2018-01-15T09:32:12.441Z,9.53
2018-01-15T09:34:40.035Z,11.67
2018-01-15T09:37:07.796Z,12.43
2018-01-15T09:39:35.392Z,12.87
2018-01-15T09:42:03.167Z,13.30
2018-01-15T09:44:30.748Z,13.10
2018-01-15T09:46:58.723Z,12.57
2018-01-15T09:49:26.323Z,11.33
2018-01-15T09:52:01.385Z,11.53
2018-01-15T09:54:29.969Z,11.13
2018-01-15T09:56:57.578Z,11.43
2018-01-15T09:59:25.172Z,11.80
2018-01-15T10:01:52.775Z,15.87
2018-01-15T10:04:20.448Z,15.97
2018-01-15T10:06:48.084Z,17.40
2018-01-15T10:09:15.931Z,19.70
2018-01-15T10:11:43.495Z,19.63
2018-01-15T10:14:11.169Z,17.03
2018-01-15T10:16:38.796Z,17.37
2018-01-15T10:19:06.444Z,21.40
2018-01-15T10:21:34.060Z,18.47
2018-01-15T10:24:01.669Z,16.43
2018-01-15T10:26:29.271Z,13.50
2018-01-15T10:28:56.876Z,13.77
2018-01-15T10:31:24.496Z,12.73
2018-01-15T10:34:04.779Z,15.30
2018-01-15T10:36:32.416Z,15.37
2018-01-15T10:38:59.974Z,16.70
2018-01-15T10:41:27.565Z,14.93
2018-01-15T10:43:55.146Z,13.60
2018-01-15T10:46:22.741Z,12.00
2018-01-15T10:48:50.320Z,14.23
2018-01-15T10:51:17.932Z,13.10
2018-01-15T10:53:45.581Z,14.43
2018-01-15T10:56:13.151Z,14.53
2018-01-15T10:58:40.912Z,12.77
2018-01-15T11:01:14.219Z,12.67
2018-01-15T11:03:41.869Z,12.53
2018-01-15T11:06:09.630Z,10.63
2018-01-15T11:08:37.294Z,11.27
2018-01-15T11:11:05.154Z,10.97
2018-01-15T11:13:32.772Z,11.43
2018-01-15T11:16:00.474Z,11.93
2018-01-15T11:18:39.909Z,11.80
2018-01-15T11:21:07.794Z,11.63
2018-01-15T11:23:35.848Z,12.87
2018-01-15T11:26:03.428Z,12.20
2018-01-15T11:28:31.037Z,11.13
2018-01-15T11:30:58.603Z,10.93
2018-01-15T11:33:26.195Z,12.10
2018-01-15T11:35:53.763Z,11.03
2018-01-15T11:38:21.382Z,12.13
2018-01-15T11:40:48.976Z,13.07
2018-01-15T11:43:16.566Z,11.57
2018-01-15T11:45:44.164Z,11.57
2018-01-15T11:48:11.806Z,10.10
2018-01-15T11:50:39.395Z,11.27
2018-01-15T11:53:07.239Z,10.77
2018-01-15T11:55:34.791Z,10.87
2018-01-15T11:58:02.383Z,11.10
2018-01-15T12:00:33.409Z,9.70
2018-01-15T12:03:00.977Z,11.87
2018-01-15T12:05:28.707Z,12.37
2018-01-15T12:07:56.335Z,11.33
2018-01-15T12:10:23.948Z,14.67
2018-01-15T12:12:51.527Z,14.23
2018-01-15T12:15:19.114Z,14.50
2018-01-15T12:17:46.673Z,14.70
2018-01-15T12:20:14.308Z,16.37
2018-01-15T12:22:41.895Z,15.43
2018-01-15T12:25:09.683Z,15.30
2018-01-15T12:27:37.295Z,13.10
2018-01-15T12:30:10.579Z,13.27
2018-01-15T12:32:38.212Z,12.27
2018-01-15T12:35:05.830Z,13.13
2018-01-15T12:37:33.801Z,11.53
2018-01-15T12:40:01.432Z,13.00
2018-01-15T12:42:29.008Z,12.10
2018-01-15T12:44:56.604Z,12.23
2018-01-15T12:47:24.171Z,13.23
2018-01-15T12:49:51.759Z,13.87
2018-01-15T12:52:19.377Z,13.43
2018-01-15T12:54:46.984Z,14.80
2018-01-15T12:57:14.581Z,16.07
2018-01-15T12:59:42.161Z,13.93
2018-01-15T13:02:09.727Z,13.77
2018-01-15T13:04:37.387Z,12.90
2018-01-15T13:07:04.947Z,14.37
2018-01-15T13:09:32.567Z,13.67
2018-01-15T13:12:00.548Z,13.43
2018-01-15T13:14:28.210Z,13.00
2018-01-15T13:16:55.837Z,11.40
2018-01-15T13:19:23.415Z,11.93
2018-01-15T13:21:51.416Z,12.83
2018-01-15T13:24:19.009Z,13.40
2018-01-15T13:26:46.595Z,12.20
2018-01-15T13:29:14.179Z,12.47
2018-01-15T13:31:41.806Z,13.17
2018-01-15T13:34:09.438Z,13.73
2018-01-15T13:36:37.050Z,13.03
2018-01-15T13:39:04.616Z,13.00
2018-01-15T13:41:32.240Z,16.67
2018-01-15T13:43:59.798Z,11.83
2018-01-15T13:46:27.399Z,13.40
2018-01-15T13:48:54.974Z,12.50
2018-01-15T13:51:22.539Z,12.43
2018-01-15T13:53:50.124Z,13.17
2018-01-15T13:56:17.729Z,13.07
2018-01-15T13:58:45.301Z,13.00
2018-01-15T14:01:12.906Z,13.70
2018-01-15T14:03:40.512Z,12.77
2018-01-15T14:06:08.146Z,12.73
2018-01-15T14:08:35.752Z,12.07
2018-01-15T14:11:03.433Z,12.00
2018-01-15T14:13:31.004Z,11.77
2018-01-15T14:15:58.590Z,13.07
2018-01-15T14:18:26.254Z,12.43
2018-01-15T14:20:53.870Z,12.83
2018-01-15T14:23:28.274Z,12.83
2018-01-15T14:25:55.908Z,12.80
2018-01-15T14:28:23.503Z,13.47
2018-01-15T14:30:51.073Z,12.00
2018-01-15T14:33:18.768Z,14.30
2018-01-15T14:35:46.711Z,13.27
2018-01-15T14:38:14.359Z,12.30
2018-01-15T14:40:42.324Z,12.23
2018-01-15T14:43:09.944Z,11.83
2018-01-15T14:45:37.545Z,12.23
2018-01-15T14:48:05.197Z,12.97
2018-01-15T14:50:32.779Z,13.77
2018-01-15T14:53:00.396Z,14.03
2018-01-15T14:55:29.241Z,13.73
2018-01-15T14:57:56.876Z,13.43
2018-01-15T15:00:24.494Z,14.50
2018-01-15T15:02:52.114Z,13.83
2018-01-15T15:05:19.912Z,14.90
2018-01-15T15:07:47.709Z,14.63
2018-01-15T15:10:15.332Z,15.80
2018-01-15T15:12:43.211Z,17.27
2018-01-15T15:15:12.002Z,16.40
2018-01-15T15:17:39.951Z,15.73
2018-01-15T15:20:08.655Z,15.83
2018-01-15T15:22:36.235Z,7.10
2018-01-15T15:25:03.786Z,2.97
2018-01-15T15:27:31.431Z,1.80
2018-01-15T15:30:00.095Z,1.80
2018-01-15T15:32:27.697Z,2.07
2018-01-15T15:34:55.260Z,1.80
2018-01-15T15:37:22.853Z,1.67
2018-01-15T15:39:50.772Z,1.90
2018-01-15T15:42:18.416Z,1.80
2018-01-15T15:44:46.004Z,1.80
2018-01-15T15:47:13.558Z,1.67
2018-01-15T15:49:41.495Z,1.77
2018-01-15T15:52:11.115Z,1.80
2018-01-15T15:54:38.807Z,1.70
2018-01-15T15:57:06.448Z,1.90
2018-01-15T15:59:34.090Z,2.30
2018-01-15T16:02:01.636Z,1.87
2018-01-15T16:04:29.306Z,2.03
2018-01-15T16:06:56.879Z,1.77
2018-01-15T16:09:24.495Z,1.87
2018-01-15T16:11:52.124Z,2.10
2018-01-15T16:14:19.764Z,2.77
2018-01-15T16:16:47.355Z,4.13
2018-01-15T16:19:15.339Z,2.00
2018-01-15T16:21:42.956Z,2.37
2018-01-15T16:24:10.542Z,2.00
2018-01-15T16:26:38.164Z,1.80
2018-01-15T16:29:06.936Z,1.97
2018-01-15T16:31:34.868Z,2.30
2018-01-15T16:34:02.497Z,1.70
2018-01-15T16:36:30.073Z,1.93
2018-01-15T16:38:57.678Z,1.63
2018-01-15T16:41:28.481Z,1.70
2018-01-15T16:43:56.702Z,2.00
2018-01-15T16:46:24.476Z,1.93
2018-01-15T16:48:52.080Z,1.80
2018-01-15T16:51:19.695Z,1.97
2018-01-15T16:53:47.339Z,2.80
2018-01-15T16:56:15.104Z,2.87
2018-01-15T16:58:43.584Z,2.40
2018-01-15T17:01:11.250Z,1.83
2018-01-15T17:03:39.102Z,1.87
2018-01-15T17:06:06.753Z,1.83
2018-01-15T17:08:34.340Z,1.93
2018-01-15T17:11:01.968Z,2.50
2018-01-15T17:13:29.527Z,1.70
2018-01-15T17:15:57.125Z,2.00
2018-01-15T17:18:24.692Z,2.10
2018-01-15T17:20:52.297Z,2.00
2018-01-15T17:23:19.871Z,2.73
2018-01-15T17:25:51.679Z,2.00
2018-01-15T18:14:22.010Z,2.23
2018-01-15T18:16:49.599Z,1.77
2018-01-15T18:19:17.267Z,1.90
2018-01-15T18:21:44.891Z,1.90
2018-01-15T18:24:12.718Z,2.07
2018-01-15T18:26:40.348Z,2.30
2018-01-15T18:29:08.000Z,2.60
2018-01-15T18:31:35.579Z,2.10
2018-01-15T18:34:03.349Z,2.23
2018-01-15T18:39:34.625Z,2.53
2018-01-15T18:42:21.566Z,3.23
2018-01-15T18:44:51.102Z,2.60
2018-01-15T18:47:18.960Z,2.80
2018-01-15T18:49:50.337Z,2.40
2018-01-15T18:52:17.926Z,2.07
2018-01-15T18:54:55.680Z,2.73
2018-01-15T18:57:29.572Z,2.77
2018-01-15T18:59:57.154Z,2.67
2018-01-15T19:02:29.125Z,1.90
2018-01-15T19:04:56.675Z,1.97
2018-01-15T19:07:24.278Z,2.50
2018-01-15T19:09:51.863Z,2.33
2018-01-15T19:12:19.464Z,2.50
2018-01-15T19:14:47.044Z,2.20
2018-01-15T19:17:23.008Z,2.50
2018-01-15T19:19:50.609Z,3.10
2018-01-15T19:22:19.427Z,3.90
2018-01-15T19:24:47.061Z,3.00
2018-01-15T19:27:14.684Z,3.47
2018-01-15T19:29:42.278Z,3.87
2018-01-15T19:32:09.938Z,3.73
2018-01-15T19:37:44.684Z,2.10
2018-01-15T19:40:12.321Z,1.90
2018-01-15T19:42:39.961Z,1.70
2018-01-15T19:45:13.140Z,1.50
2018-01-15T19:47:46.465Z,1.83
2018-01-15T19:50:19.759Z,1.50
2018-01-15T19:52:52.897Z,1.57
2018-01-15T19:55:26.385Z,1.43
2018-01-15T19:57:59.870Z,1.13
2018-01-15T20:00:46.185Z,1.20
2018-01-15T20:03:19.440Z,1.00
2018-01-15T20:05:52.582Z,0.87
2018-01-15T20:08:25.807Z,0.90
2018-01-15T20:10:53.967Z,0.87
2018-01-15T20:13:21.554Z,0.70
2018-01-15T20:15:49.161Z,1.00
2018-01-15T20:18:21.238Z,0.67
2018-01-15T20:20:48.871Z,0.90
2018-01-15T20:23:16.472Z,0.70
2018-01-15T20:25:44.065Z,1.10
2018-01-15T20:28:11.658Z,0.77
2018-01-15T20:30:39.606Z,0.63
2018-01-15T20:33:09.332Z,0.73
2018-01-15T20:35:37.556Z,0.87
2018-01-15T20:38:05.344Z,0.70
2018-01-15T20:40:32.933Z,0.80
2018-01-15T20:43:00.715Z,0.63
2018-01-15T20:45:28.321Z,0.60
2018-01-15T20:47:55.969Z,0.60
2018-01-15T20:50:23.596Z,0.60
2018-01-15T20:53:03.112Z,0.50
2018-01-15T20:55:31.146Z,0.80
2018-01-15T20:57:58.799Z,0.60
2018-01-15T21:00:26.452Z,0.80
2018-01-15T21:02:54.018Z,0.50
2018-01-15T21:05:22.038Z,0.70
2018-01-15T21:07:49.694Z,0.60
2018-01-15T21:10:17.347Z,0.60
2018-01-15T21:12:45.000Z,0.53
2018-01-15T21:15:12.663Z,0.60
2018-01-15T21:17:40.659Z,0.60
2018-01-15T21:20:08.299Z,0.60
2018-01-15T21:22:35.859Z,0.60
2018-01-15T21:25:03.505Z,0.70
2018-01-15T21:27:31.134Z,0.50
2018-01-15T21:29:58.749Z,0.77
2018-01-15T21:32:26.369Z,0.70
2018-01-15T21:34:54.013Z,0.50
2018-01-15T21:37:21.670Z,0.60
2018-01-15T21:39:49.291Z,0.50
2018-01-15T21:42:16.914Z,0.60
2018-01-15T21:44:44.537Z,0.50
2018-01-15T21:47:12.175Z,0.50
2018-01-15T21:49:39.825Z,0.50
2018-01-15T21:52:07.473Z,0.40
2018-01-15T21:54:35.178Z,0.50
2018-01-15T21:57:02.740Z,0.50
2018-01-15T21:59:30.383Z,0.50
2018-01-15T22:01:57.934Z,0.70
2018-01-15T22:04:25.531Z,0.50
2018-01-15T22:06:53.162Z,0.60
2018-01-15T22:09:20.798Z,0.57
2018-01-15T22:11:48.440Z,0.50
2018-01-15T22:14:16.094Z,0.40
2018-01-15T22:16:43.651Z,0.40
2018-01-15T22:19:11.243Z,0.40
2018-01-15T22:21:38.856Z,0.70
2018-01-15T22:24:06.440Z,0.50
2018-01-15T22:26:34.467Z,0.53
2018-01-15T22:29:02.040Z,0.30
2018-01-15T22:31:29.647Z,0.40
2018-01-15T22:33:57.279Z,0.30
2018-01-15T22:36:24.888Z,0.37
2018-01-15T22:38:52.499Z,0.30
2018-01-15T22:41:20.101Z,0.50
2018-01-15T22:43:47.713Z,0.40
2018-01-15T22:46:15.314Z,0.60
2018-01-15T22:48:42.936Z,0.33
2018-01-15T22:51:10.945Z,0.50
2018-01-15T22:53:38.587Z,0.53
2018-01-15T22:56:06.165Z,0.40
2018-01-15T22:58:33.759Z,0.30
2018-01-15T23:01:01.369Z,0.50
2018-01-15T23:03:28.959Z,0.30
2018-01-15T23:05:56.585Z,0.40
2018-01-15T23:08:24.172Z,0.40
2018-01-15T23:10:51.784Z,0.40
2018-01-15T23:13:19.368Z,0.30
2018-01-15T23:15:46.948Z,0.33
2018-01-15T23:18:14.537Z,0.33
2018-01-15T23:20:42.098Z,0.30
2018-01-15T23:23:09.698Z,0.40
2018-01-15T23:25:37.277Z,0.53
2018-01-15T23:28:04.826Z,0.50
2018-01-15T23:30:32.443Z,0.50
2018-01-15T23:32:59.995Z,0.50
2018-01-15T23:35:27.975Z,0.47
2018-01-15T23:37:55.572Z,0.40
2018-01-15T23:40:23.122Z,0.40
2018-01-15T23:42:50.746Z,0.40
2018-01-15T23:45:18.295Z,0.30
2018-01-15T23:47:45.931Z,0.30
2018-01-15T23:50:13.563Z,0.40
2018-01-15T23:52:41.180Z,0.40
2018-01-15T23:55:08.753Z,0.40
2018-01-15T23:57:36.334Z,0.40
